Time;durP1;ratioP1;P1;durP2;ratioP2;P2;SDS_P1;SDS_P2;PMS_P1;PMS_P2;Temp;Humidity;BMP_temperature;BMP_pressure;BME280_temperature;BME280_humidity;BME280_pressure;Samples;Min_cycle;Max_cycle;Signal;HPM_P1;HPM_P2
2021/05/22 07:02:09;;;;;;;19.13;1.95;;;;;;;;;;6981693;28;20644;-80
2021/05/22 07:05:30;;;;;;;15.27;2.15;;;;;;;;;;6967347;28;20034;-80
2021/05/22 07:08:54;;;;;;;6.22;2.30;;;;;;;;;;6969192;28;20036;-80
2021/05/22 07:12:14;;;;;;;6.35;2.28;;;;;;;;;;6972873;28;20087;-80
2021/05/22 07:15:35;;;;;;;8.18;2.40;;;;;;;;;;6970645;28;20048;-80
2021/05/22 07:18:55;;;;;;;9.13;2.53;;;;;;;;;;6968190;28;20586;-80
2021/05/22 07:22:16;;;;;;;7.13;2.22;;;;;;;;;;6968297;28;20029;-81
2021/05/22 07:25:38;;;;;;;10.93;2.58;;;;;;;;;;6971359;28;20112;-81
2021/05/22 07:28:58;;;;;;;9.30;2.15;;;;;;;;;;6972418;28;20065;-80
2021/05/22 07:32:20;;;;;;;5.18;1.92;;;;;;;;;;6968543;28;20062;-80
2021/05/22 07:35:41;;;;;;;9.20;2.67;;;;;;;;;;6966753;28;20372;-82
2021/05/22 07:39:06;;;;;;;12.32;2.63;;;;;;;;;;6956303;28;20034;-85
2021/05/22 07:42:27;;;;;;;4.97;1.92;;;;;;;;;;6967523;28;20047;-85
2021/05/22 07:45:47;;;;;;;9.05;2.08;;;;;;;;;;6959150;28;20029;-81
2021/05/22 07:49:08;;;;;;;6.00;2.42;;;;;;;;;;6966098;28;20478;-88
2021/05/22 07:52:29;;;;;;;11.25;2.30;;;;;;;;;;6974484;28;20024;-87
2021/05/22 07:55:49;;;;;;;6.57;2.50;;;;;;;;;;6966839;28;20025;-89
2021/05/22 07:59:10;;;;;;;17.83;2.95;;;;;;;;;;6961446;28;20050;-87
2021/05/22 08:02:30;;;;;;;8.93;2.20;;;;;;;;;;6975000;28;20120;-89
2021/05/22 08:05:51;;;;;;;6.57;2.50;;;;;;;;;;6962961;28;20022;-89
2021/05/22 08:09:11;;;;;;;7.43;2.28;;;;;;;;;;6946291;28;20116;-85
2021/05/22 08:12:32;;;;;;;6.45;1.95;;;;;;;;;;6932256;28;20037;-82
2021/05/22 08:15:52;;;;;;;5.25;2.03;;;;;;;;;;6935462;28;20030;-82
2021/05/22 08:19:13;;;;;;;7.15;2.50;;;;;;;;;;6948095;28;20057;-82
2021/05/22 08:22:34;;;;;;;7.18;1.80;;;;;;;;;;6956681;28;20463;-81
2021/05/22 08:25:57;;;;;;;9.80;1.95;;;;;;;;;;6947629;28;20025;-81
2021/05/22 08:29:17;;;;;;;5.35;2.08;;;;;;;;;;6955790;28;20022;-82
2021/05/22 08:32:39;;;;;;;5.50;1.60;;;;;;;;;;6946137;28;20038;-80
2021/05/22 08:35:59;;;;;;;12.05;2.08;;;;;;;;;;6948046;28;20061;-80
2021/05/22 08:39:20;;;;;;;11.20;2.28;;;;;;;;;;6947361;28;20030;-82
2021/05/22 08:42:41;;;;;;;3.35;1.58;;;;;;;;;;6946979;28;20044;-82
2021/05/22 08:46:06;;;;;;;4.95;1.52;;;;;;;;;;6946538;28;20133;-82
2021/05/22 08:49:40;;;;;;;4.85;1.60;;;;;;;;;;6937610;28;20034;-82
2021/05/22 08:53:01;;;;;;;10.75;2.03;;;;;;;;;;6943703;28;20071;-85
2021/05/22 08:56:21;;;;;;;3.72;1.60;;;;;;;;;;6958139;28;20433;-85
2021/05/22 08:59:45;;;;;;;5.57;1.75;;;;;;;;;;6937664;28;20140;-83
2021/05/22 09:03:07;;;;;;;4.72;1.50;;;;;;;;;;6929555;28;20034;-84
2021/05/22 09:06:28;;;;;;;9.38;1.90;;;;;;;;;;6948336;28;20033;-85
2021/05/22 09:09:48;;;;;;;7.43;1.88;;;;;;;;;;6954950;28;20434;-86
2021/05/22 09:13:24;;;;;;;4.65;1.60;;;;;;;;;;6952771;28;20111;-84
2021/05/22 09:16:45;;;;;;;9.65;2.00;;;;;;;;;;6957258;28;20174;-84
2021/05/22 09:20:14;;;;;;;5.75;1.77;;;;;;;;;;6946210;28;20486;-84
2021/05/22 09:23:40;;;;;;;10.35;1.95;;;;;;;;;;6937854;28;20479;-84
2021/05/22 09:27:08;;;;;;;7.60;2.20;;;;;;;;;;6949292;28;20056;-84
2021/05/22 09:30:30;;;;;;;7.63;2.28;;;;;;;;;;6945626;28;20041;-84
2021/05/22 09:33:58;;;;;;;5.22;1.80;;;;;;;;;;6945198;28;20541;-84
2021/05/22 09:37:18;;;;;;;11.77;2.00;;;;;;;;;;6941633;28;20033;-84
2021/05/22 09:40:39;;;;;;;6.95;2.10;;;;;;;;;;6948871;28;20104;-84
2021/05/22 09:44:13;;;;;;;6.57;2.33;;;;;;;;;;6934381;28;20044;-83
2021/05/22 09:47:36;;;;;;;6.13;2.00;;;;;;;;;;6947062;28;20021;-83
2021/05/22 09:50:57;;;;;;;4.00;1.77;;;;;;;;;;6944442;28;20033;-84
2021/05/22 09:54:17;;;;;;;5.07;1.70;;;;;;;;;;6940855;28;20033;-84
2021/05/22 09:57:41;;;;;;;6.30;1.65;;;;;;;;;;6942986;28;20041;-84
2021/05/22 10:01:01;;;;;;;4.75;1.65;;;;;;;;;;6934141;28;20046;-85
2021/05/22 10:04:22;;;;;;;4.38;1.75;;;;;;;;;;6939565;28;20033;-83
2021/05/22 10:07:44;;;;;;;9.00;2.00;;;;;;;;;;6935105;28;20474;-83
2021/05/22 10:11:05;;;;;;;7.28;1.67;;;;;;;;;;6942999;28;20421;-84
2021/05/22 10:14:27;;;;;;;4.55;1.67;;;;;;;;;;6944006;28;20037;-84
2021/05/22 10:17:49;;;;;;;5.40;1.38;;;;;;;;;;6944094;28;20038;-84
2021/05/22 10:21:10;;;;;;;4.72;2.08;;;;;;;;;;6945865;28;20033;-84
2021/05/22 10:24:30;;;;;;;9.40;2.13;;;;;;;;;;6950238;28;20056;-84
2021/05/22 10:27:51;;;;;;;3.92;1.40;;;;;;;;;;6932031;28;20494;-86
2021/05/22 10:31:11;;;;;;;2.45;1.58;;;;;;;;;;6933341;28;20452;-83
2021/05/22 10:34:36;;;;;;;4.78;1.70;;;;;;;;;;6931919;28;20103;-83
2021/05/22 10:37:57;;;;;;;6.30;1.85;;;;;;;;;;6942928;28;20037;-83
2021/05/22 10:41:37;;;;;;;9.02;1.88;;;;;;;;;;6943444;28;20465;-83
2021/05/22 10:44:58;;;;;;;9.25;1.70;;;;;;;;;;6942841;28;20042;-83
2021/05/22 10:48:19;;;;;;;7.43;2.13;;;;;;;;;;6945899;28;20033;-83
2021/05/22 10:51:39;;;;;;;4.72;1.92;;;;;;;;;;6932550;28;20375;-83
2021/05/22 10:55:08;;;;;;;5.18;1.50;;;;;;;;;;6944497;28;20030;-84
2021/05/22 10:58:29;;;;;;;3.67;1.60;;;;;;;;;;6934769;28;20091;-83
2021/05/22 11:01:49;;;;;;;3.67;1.50;;;;;;;;;;6945357;28;20069;-82
2021/05/22 11:05:22;;;;;;;6.10;1.60;;;;;;;;;;6945780;28;20057;-82
2021/05/22 11:08:45;;;;;;;7.82;1.67;;;;;;;;;;6943024;28;20115;-83
2021/05/22 11:12:15;;;;;;;4.75;1.83;;;;;;;;;;6933145;28;20480;-84
2021/05/22 11:15:46;;;;;;;5.25;1.60;;;;;;;;;;6937802;28;20034;-83
2021/05/22 11:19:06;;;;;;;4.90;1.92;;;;;;;;;;6935669;28;20380;-83
2021/05/22 11:22:28;;;;;;;6.80;1.75;;;;;;;;;;6930143;28;20483;-84
2021/05/22 11:25:52;;;;;;;8.65;1.67;;;;;;;;;;6943639;28;20037;-84
2021/05/22 11:29:12;;;;;;;6.97;1.80;;;;;;;;;;6935484;28;20037;-83
2021/05/22 11:32:58;;;;;;;2.90;1.45;;;;;;;;;;6934984;28;20387;-83
2021/05/22 11:36:19;;;;;;;5.28;1.75;;;;;;;;;;6945894;28;20040;-83
2021/05/22 11:39:40;;;;;;;6.28;1.55;;;;;;;;;;6941536;28;20041;-83
2021/05/22 11:43:29;;;;;;;8.38;1.70;;;;;;;;;;6944287;28;20162;-84
2021/05/22 11:46:53;;;;;;;;;;;;;;;;;;6936288;28;20030;-84
2021/05/22 11:50:23;;;;;;;5.00;1.73;;;;;;;;;;6944657;28;19909;-85
2021/05/22 11:54:07;;;;;;;6.03;1.92;;;;;;;;;;6945596;28;20051;-84
2021/05/22 11:57:27;;;;;;;7.70;1.50;;;;;;;;;;6937377;28;20474;-85
2021/05/22 12:00:48;;;;;;;5.53;1.52;;;;;;;;;;6932607;28;20094;-84
2021/05/22 12:04:11;;;;;;;6.70;1.70;;;;;;;;;;6930527;28;20034;-85
2021/05/22 12:07:51;;;;;;;9.55;1.58;;;;;;;;;;6932846;28;20037;-85
2021/05/22 12:11:16;;;;;;;5.88;1.35;;;;;;;;;;6950127;28;20029;-85
2021/05/22 12:14:42;;;;;;;4.00;1.35;;;;;;;;;;6946154;28;20033;-85
2021/05/22 12:18:04;;;;;;;8.70;1.90;;;;;;;;;;6951977;28;20102;-82
2021/05/22 12:21:31;;;;;;;4.75;1.80;;;;;;;;;;6945113;28;20032;-83
2021/05/22 12:24:54;;;;;;;14.82;1.85;;;;;;;;;;6937029;28;20033;-84
2021/05/22 12:28:14;;;;;;;7.30;2.28;;;;;;;;;;6927311;28;20029;-84
2021/05/22 12:31:35;;;;;;;4.13;1.65;;;;;;;;;;6933423;23;20132;-80
2021/05/22 12:34:57;;;;;;;8.98;1.52;;;;;;;;;;6920553;28;20029;-80
2021/05/22 12:38:17;;;;;;;12.32;2.15;;;;;;;;;;6903365;28;20038;-80
2021/05/22 12:41:39;;;;;;;8.63;1.90;;;;;;;;;;6912634;28;20069;-80
2021/05/22 12:45:17;;;;;;;8.45;2.08;;;;;;;;;;6908643;28;20491;-80
2021/05/22 12:48:37;;;;;;;15.50;2.10;;;;;;;;;;6908337;28;20029;-79
2021/05/22 12:52:10;;;;;;;5.38;1.88;;;;;;;;;;6932850;28;20037;-80
2021/05/22 12:55:32;;;;;;;9.48;1.70;;;;;;;;;;6919236;28;20041;-79
2021/05/22 12:59:11;;;;;;;7.20;2.22;;;;;;;;;;6915664;28;20345;-79
2021/05/22 13:02:34;;;;;;;6.60;1.40;;;;;;;;;;6918570;28;20120;-80
2021/05/22 13:05:54;;;;;;;12.20;2.03;;;;;;;;;;6912971;28;20042;-79
2021/05/22 13:09:14;;;;;;;7.07;1.80;;;;;;;;;;6914625;28;20105;-79
2021/05/22 13:12:35;;;;;;;8.02;1.98;;;;;;;;;;6910007;28;20475;-79
2021/05/22 13:16:04;;;;;;;16.10;2.13;;;;;;;;;;6919836;28;20022;-80
2021/05/22 13:19:45;;;;;;;7.68;1.95;;;;;;;;;;6918204;28;20061;-79
2021/05/22 13:23:13;;;;;;;3.75;1.60;;;;;;;;;;6918220;28;20065;-79
2021/05/22 13:26:33;;;;;;;8.75;1.88;;;;;;;;;;6918978;28;20026;-79
2021/05/22 13:29:59;;;;;;;7.70;1.80;;;;;;;;;;6911624;28;20076;-79
2021/05/22 13:33:35;;;;;;;11.93;2.10;;;;;;;;;;6918596;28;20057;-80
2021/05/22 13:36:55;;;;;;;12.90;1.77;;;;;;;;;;6915665;28;20069;-79
2021/05/22 13:40:16;;;;;;;9.95;1.92;;;;;;;;;;6903374;28;20033;-80
2021/05/22 13:43:37;;;;;;;8.05;1.60;;;;;;;;;;6916674;28;20029;-79
2021/05/22 13:46:58;;;;;;;8.18;1.98;;;;;;;;;;6912534;28;20034;-80
2021/05/22 13:50:18;;;;;;;9.57;1.70;;;;;;;;;;6910823;28;20057;-79
2021/05/22 13:53:38;;;;;;;10.30;2.53;;;;;;;;;;6918203;28;20022;-80
2021/05/22 13:56:59;;;;;;;5.38;1.60;;;;;;;;;;6910418;28;20042;-80
2021/05/22 14:00:20;;;;;;;10.52;1.85;;;;;;;;;;6895402;28;20113;-79
2021/05/22 14:03:40;;;;;;;13.40;1.77;;;;;;;;;;6913849;28;20098;-79
2021/05/22 14:07:01;;;;;;;7.07;1.92;;;;;;;;;;6908068;28;20410;-79
2021/05/22 14:10:21;;;;;;;4.13;1.67;;;;;;;;;;6917237;28;20387;-80
2021/05/22 14:13:42;;;;;;;3.65;1.58;;;;;;;;;;6916294;28;20034;-79
2021/05/22 14:17:03;;;;;;;9.38;1.90;;;;;;;;;;6916464;28;20057;-80
2021/05/22 14:20:23;;;;;;;3.47;1.65;;;;;;;;;;6917602;28;20033;-79
2021/05/22 14:23:44;;;;;;;6.93;1.98;;;;;;;;;;6916998;28;20056;-80
2021/05/22 14:27:05;;;;;;;8.25;1.67;;;;;;;;;;6916945;28;20041;-79
2021/05/22 14:30:25;;;;;;;4.50;1.60;;;;;;;;;;6916227;28;20056;-79
2021/05/22 14:33:45;;;;;;;8.45;1.92;;;;;;;;;;6917454;28;20021;-79
2021/05/22 14:37:06;;;;;;;2.75;1.60;;;;;;;;;;6916552;28;20361;-80
2021/05/22 14:40:26;;;;;;;7.22;1.52;;;;;;;;;;6917160;28;20072;-80
2021/05/22 14:43:47;;;;;;;2.95;1.42;;;;;;;;;;6916340;28;20065;-80
2021/05/22 14:47:07;;;;;;;4.75;1.60;;;;;;;;;;6916387;28;20084;-80
2021/05/22 14:50:31;;;;;;;10.25;1.98;;;;;;;;;;6917064;28;20080;-79
2021/05/22 14:53:51;;;;;;;4.15;1.52;;;;;;;;;;6916596;28;20030;-80
2021/05/22 14:57:12;;;;;;;4.55;1.10;;;;;;;;;;6916428;28;20044;-80
2021/05/22 15:00:32;;;;;;;3.70;1.65;;;;;;;;;;6916542;28;20037;-80
2021/05/22 15:03:53;;;;;;;6.32;1.90;;;;;;;;;;6916109;28;20041;-79
2021/05/22 15:07:13;;;;;;;9.05;1.77;;;;;;;;;;6915246;28;20306;-79
2021/05/22 15:10:34;;;;;;;5.97;2.03;;;;;;;;;;6916219;28;20040;-79
2021/05/22 15:13:54;;;;;;;5.22;1.77;;;;;;;;;;6915329;28;20069;-79
2021/05/22 15:17:15;;;;;;;5.32;1.65;;;;;;;;;;6914526;28;20029;-80
2021/05/22 15:20:35;;;;;;;6.65;1.60;;;;;;;;;;6905154;28;20037;-79
2021/05/22 15:23:56;;;;;;;4.97;1.55;;;;;;;;;;6922274;28;20042;-79
2021/05/22 15:27:16;;;;;;;6.13;1.70;;;;;;;;;;6921316;28;20100;-79
2021/05/22 15:30:37;;;;;;;7.07;1.92;;;;;;;;;;6920294;28;20057;-80
2021/05/22 15:33:57;;;;;;;7.47;1.60;;;;;;;;;;6903226;28;20036;-78
2021/05/22 15:37:18;;;;;;;9.45;1.80;;;;;;;;;;6908243;28;20108;-80
2021/05/22 15:40:39;;;;;;;6.40;1.40;;;;;;;;;;6894717;28;20030;-79
2021/05/22 15:44:03;;;;;;;4.80;1.40;;;;;;;;;;6917750;28;20049;-79
2021/05/22 15:58:17;;;;;;;6.88;2.20;;;;;;;;;;6908543;28;20045;-79
2021/05/22 16:08:22;;;;;;;4.07;1.50;;;;;;;;;;6920690;28;20037;-79
2021/05/22 16:11:43;;;;;;;2.53;1.30;;;;;;;;;;6920878;28;20460;-79
2021/05/22 16:15:04;;;;;;;4.15;1.55;;;;;;;;;;6920967;28;20064;-79
2021/05/22 16:18:24;;;;;;;9.90;1.80;;;;;;;;;;6920942;28;20107;-79
2021/05/22 16:21:45;;;;;;;10.30;1.75;;;;;;;;;;6921131;28;20361;-80
2021/05/22 16:25:06;;;;;;;3.13;1.50;;;;;;;;;;6919098;28;20030;-78
2021/05/22 16:28:26;;;;;;;31.15;3.13;;;;;;;;;;6920342;28;20037;-78
2021/05/22 16:31:47;;;;;;;20.52;4.00;;;;;;;;;;6918570;28;20089;-79
2021/05/22 16:35:08;;;;;;;17.40;3.42;;;;;;;;;;6919659;28;20037;-78
2021/05/22 16:38:29;;;;;;;8.98;2.90;;;;;;;;;;6912652;28;20155;-77
2021/05/22 16:41:51;;;;;;;11.75;2.50;;;;;;;;;;6911770;28;20030;-77
2021/05/22 16:45:13;;;;;;;15.15;2.75;;;;;;;;;;6914351;28;20030;-78
2021/05/22 16:48:34;;;;;;;18.77;3.67;;;;;;;;;;6912368;28;20514;-78
2021/05/22 16:51:54;;;;;;;18.77;4.55;;;;;;;;;;6910262;28;20033;-78
2021/05/22 16:55:14;;;;;;;14.52;4.60;;;;;;;;;;6919195;28;20057;-78
2021/05/22 16:58:35;;;;;;;30.20;4.90;;;;;;;;;;6919238;28;20034;-79
2021/05/22 17:01:55;;;;;;;14.30;4.97;;;;;;;;;;6919011;28;20026;-78
2021/05/22 17:05:18;;;;;;;17.90;5.13;;;;;;;;;;6912595;28;20460;-79
2021/05/22 17:08:38;;;;;;;17.05;5.47;;;;;;;;;;6918378;28;20026;-79
2021/05/22 17:11:59;;;;;;;10.80;4.97;;;;;;;;;;6918341;28;20034;-79
2021/05/22 17:15:21;;;;;;;19.25;5.88;;;;;;;;;;6918751;28;20030;-79
2021/05/22 17:18:42;;;;;;;17.02;6.32;;;;;;;;;;6906797;28;20026;-79
2021/05/22 17:22:03;;;;;;;21.45;6.40;;;;;;;;;;6917607;28;20262;-79
2021/05/22 17:25:23;;;;;;;18.65;4.85;;;;;;;;;;6918053;28;20033;-78
2021/05/22 17:28:44;;;;;;;14.25;5.60;;;;;;;;;;6916426;28;20034;-79
2021/05/22 17:32:05;;;;;;;18.52;5.20;;;;;;;;;;6917597;28;20196;-79
2021/05/22 17:35:26;;;;;;;11.18;4.75;;;;;;;;;;6916515;28;20033;-79
2021/05/22 17:38:47;;;;;;;16.08;5.35;;;;;;;;;;6914958;28;20038;-78
2021/05/22 17:42:07;;;;;;;7.35;4.45;;;;;;;;;;6914976;28;20119;-79
2021/05/22 17:45:28;;;;;;;19.00;5.60;;;;;;;;;;6915633;28;20034;-79
2021/05/22 17:48:49;;;;;;;11.50;4.60;;;;;;;;;;6910640;28;20092;-78
2021/05/22 17:52:10;;;;;;;11.82;4.32;;;;;;;;;;6898947;28;20112;-79
2021/05/22 17:55:31;;;;;;;12.48;4.40;;;;;;;;;;6913919;28;20120;-79
2021/05/22 17:58:53;;;;;;;10.90;4.10;;;;;;;;;;6898051;28;20120;-78
2021/05/22 18:02:13;;;;;;;13.85;5.50;;;;;;;;;;6916567;28;20037;-79
2021/05/22 18:05:34;;;;;;;20.80;5.00;;;;;;;;;;6920828;28;20072;-79
2021/05/22 18:08:54;;;;;;;13.55;4.45;;;;;;;;;;6923360;28;20062;-79
2021/05/22 18:12:15;;;;;;;12.85;4.70;;;;;;;;;;6916986;28;20386;-78
2021/05/22 18:15:35;;;;;;;13.88;4.38;;;;;;;;;;6918022;28;20049;-79
2021/05/22 18:18:56;;;;;;;10.85;4.35;;;;;;;;;;6911388;28;20028;-79
2021/05/22 18:22:16;;;;;;;8.65;4.07;;;;;;;;;;6936946;28;20141;-79
2021/05/22 18:25:37;;;;;;;9.63;4.00;;;;;;;;;;6916590;28;20373;-79
2021/05/22 18:28:57;;;;;;;13.85;4.28;;;;;;;;;;6907007;28;20053;-79
2021/05/22 18:32:18;;;;;;;14.70;3.50;;;;;;;;;;6918464;28;20056;-78
2021/05/22 18:35:39;;;;;;;12.23;3.40;;;;;;;;;;6918334;28;20064;-79
2021/05/22 18:38:59;;;;;;;8.98;3.40;;;;;;;;;;6913757;28;20108;-78
2021/05/22 18:42:20;;;;;;;5.15;2.88;;;;;;;;;;6916763;28;20383;-79
2021/05/22 18:45:42;;;;;;;10.57;3.15;;;;;;;;;;6913434;28;20033;-79
2021/05/22 18:49:02;;;;;;;12.82;3.85;;;;;;;;;;6915782;28;20041;-79
2021/05/22 18:52:23;;;;;;;8.85;3.20;;;;;;;;;;6914466;28;20492;-80
2021/05/22 18:55:43;;;;;;;11.70;3.33;;;;;;;;;;6919452;28;20388;-79
2021/05/22 18:59:05;;;;;;;12.02;3.13;;;;;;;;;;6914001;28;20121;-80
2021/05/22 19:02:26;;;;;;;10.52;2.85;;;;;;;;;;6912912;28;20026;-79
2021/05/22 19:05:46;;;;;;;7.47;3.38;;;;;;;;;;6918443;28;20499;-79
2021/05/22 19:09:07;;;;;;;9.05;3.17;;;;;;;;;;6916497;28;20038;-79
2021/05/22 19:12:29;;;;;;;11.73;3.35;;;;;;;;;;6914633;28;20034;-79
2021/05/22 19:15:49;;;;;;;7.35;3.17;;;;;;;;;;6915992;28;20038;-78
2021/05/22 19:19:10;;;;;;;7.05;2.90;;;;;;;;;;6915090;28;20053;-79
2021/05/22 19:22:31;;;;;;;8.25;2.95;;;;;;;;;;6910387;28;20451;-79
2021/05/22 19:25:51;;;;;;;9.07;3.13;;;;;;;;;;6911929;28;20037;-79
2021/05/22 19:29:12;;;;;;;6.40;3.08;;;;;;;;;;6909985;28;20088;-79
2021/05/22 19:32:33;;;;;;;12.95;3.25;;;;;;;;;;6907818;28;20046;-79
2021/05/22 19:35:53;;;;;;;6.53;2.95;;;;;;;;;;6910427;28;20495;-79
2021/05/22 19:39:14;;;;;;;6.72;2.90;;;;;;;;;;6910044;28;20038;-78
2021/05/22 19:42:37;;;;;;;6.93;2.97;;;;;;;;;;6916394;28;20112;-78
2021/05/22 19:45:57;;;;;;;4.82;3.00;;;;;;;;;;6902754;28;20614;-79
2021/05/22 19:49:18;;;;;;;13.25;2.88;;;;;;;;;;6915107;28;20030;-78
2021/05/22 19:52:39;;;;;;;6.85;3.10;;;;;;;;;;6914581;28;20033;-79
2021/05/22 19:56:01;;;;;;;14.98;3.28;;;;;;;;;;6918091;28;20032;-78
2021/05/22 19:59:22;;;;;;;8.13;2.63;;;;;;;;;;6912327;28;20033;-78
2021/05/22 20:02:43;;;;;;;8.90;3.38;;;;;;;;;;6914242;28;20053;-78
2021/05/22 20:06:04;;;;;;;6.70;3.35;;;;;;;;;;6919776;28;20049;-78
2021/05/22 20:09:24;;;;;;;6.90;2.95;;;;;;;;;;6928312;28;20029;-78
2021/05/22 20:12:45;;;;;;;8.77;2.67;;;;;;;;;;6920585;28;20041;-78
2021/05/22 20:16:05;;;;;;;7.13;2.42;;;;;;;;;;6902078;28;20030;-78
2021/05/22 20:19:26;;;;;;;5.75;2.78;;;;;;;;;;6918606;28;20097;-78
2021/05/22 20:22:47;;;;;;;8.02;2.72;;;;;;;;;;6921201;28;20072;-77
2021/05/22 20:26:07;;;;;;;11.20;2.67;;;;;;;;;;6915893;28;20092;-78
2021/05/22 20:29:28;;;;;;;8.30;2.70;;;;;;;;;;6920085;28;20117;-78
2021/05/22 20:32:52;;;;;;;5.65;2.63;;;;;;;;;;6912701;28;20417;-77
2021/05/22 20:36:13;;;;;;;9.45;3.90;;;;;;;;;;6917913;28;20039;-79
2021/05/22 20:39:33;;;;;;;8.57;3.95;;;;;;;;;;6913896;28;20038;-79
2021/05/22 20:42:54;;;;;;;7.88;4.03;;;;;;;;;;6919158;28;20121;-79
2021/05/22 20:46:15;;;;;;;12.13;4.35;;;;;;;;;;6920521;28;20091;-79
2021/05/22 20:49:44;;;;;;;11.65;4.40;;;;;;;;;;6920171;28;20028;-78
2021/05/22 20:53:05;;;;;;;12.15;4.40;;;;;;;;;;6917100;28;20048;-78
2021/05/22 20:56:25;;;;;;;10.82;4.25;;;;;;;;;;6916824;28;20057;-77
2021/05/22 20:59:46;;;;;;;11.63;4.82;;;;;;;;;;6921288;28;20052;-79
2021/05/22 21:03:08;;;;;;;7.95;3.92;;;;;;;;;;6915974;28;20061;-80
2021/05/22 21:06:28;;;;;;;8.82;4.10;;;;;;;;;;6915429;28;20478;-77
2021/05/22 21:09:49;;;;;;;12.05;4.00;;;;;;;;;;6912590;28;20113;-75
2021/05/22 21:13:09;;;;;;;7.85;3.75;;;;;;;;;;6913228;28;20042;-78
2021/05/22 21:16:30;;;;;;;10.75;3.95;;;;;;;;;;6912043;28;20112;-78
2021/05/22 21:19:51;;;;;;;10.63;4.00;;;;;;;;;;6913480;28;20112;-77
2021/05/22 21:23:12;;;;;;;10.88;3.90;;;;;;;;;;6916796;28;20132;-78
2021/05/22 21:26:33;;;;;;;16.00;4.20;;;;;;;;;;6914662;28;20080;-79
2021/05/22 21:29:53;;;;;;;12.20;4.05;;;;;;;;;;6915883;28;20046;-78
2021/05/22 21:33:14;;;;;;;13.23;3.65;;;;;;;;;;6916116;28;20197;-79
2021/05/22 21:36:35;;;;;;;14.45;4.68;;;;;;;;;;6920819;28;20093;-78
2021/05/22 21:39:56;;;;;;;16.33;4.00;;;;;;;;;;6907908;28;20133;-78
2021/05/22 21:43:16;;;;;;;10.13;3.83;;;;;;;;;;6919387;28;20030;-77
2021/05/22 21:46:37;;;;;;;12.27;4.07;;;;;;;;;;6916817;28;20057;-78
2021/05/22 21:49:57;;;;;;;9.32;3.63;;;;;;;;;;6915842;28;20033;-78
2021/05/22 21:53:18;;;;;;;7.22;3.40;;;;;;;;;;6915140;28;20033;-78
2021/05/22 21:56:39;;;;;;;11.65;3.75;;;;;;;;;;6916073;28;20044;-78
2021/05/22 21:59:59;;;;;;;10.90;3.28;;;;;;;;;;6917639;28;20033;-78
2021/05/22 22:03:23;;;;;;;8.73;3.25;;;;;;;;;;6917630;28;20069;-77
2021/05/22 22:06:44;;;;;;;9.75;3.20;;;;;;;;;;6920510;28;20034;-77
2021/05/22 22:10:05;;;;;;;9.80;3.42;;;;;;;;;;6915349;28;20029;-78
2021/05/22 22:13:26;;;;;;;14.60;3.53;;;;;;;;;;6902460;28;20036;-78
2021/05/22 22:16:46;;;;;;;6.28;3.03;;;;;;;;;;6917055;28;20118;-77
2021/05/22 22:20:08;;;;;;;8.73;3.63;;;;;;;;;;6917306;28;20380;-78
2021/05/22 22:23:29;;;;;;;10.45;3.50;;;;;;;;;;6917654;28;20034;-77
2021/05/22 22:26:50;;;;;;;7.53;3.30;;;;;;;;;;6908205;28;20372;-78
2021/05/22 22:30:11;;;;;;;7.85;3.20;;;;;;;;;;6907933;28;20502;-78
2021/05/22 22:33:33;;;;;;;11.70;3.70;;;;;;;;;;6916955;28;20017;-78
2021/05/22 22:36:53;;;;;;;8.50;3.53;;;;;;;;;;6915700;28;20562;-78
2021/05/22 22:40:14;;;;;;;10.73;3.33;;;;;;;;;;6916492;28;20109;-78
2021/05/22 22:43:35;;;;;;;9.52;3.40;;;;;;;;;;6916569;28;20927;-78
2021/05/22 22:46:56;;;;;;;8.30;3.95;;;;;;;;;;6915828;28;20030;-77
2021/05/22 22:50:17;;;;;;;4.72;2.88;;;;;;;;;;6915996;28;20121;-78
2021/05/22 22:53:37;;;;;;;9.30;3.15;;;;;;;;;;6915050;28;20037;-77
2021/05/22 22:56:58;;;;;;;7.90;2.85;;;;;;;;;;6910439;28;20026;-78
2021/05/22 23:00:19;;;;;;;12.23;3.67;;;;;;;;;;6916407;28;20042;-78
2021/05/22 23:03:40;;;;;;;10.05;3.20;;;;;;;;;;6917073;28;20072;-79
2021/05/22 23:07:02;;;;;;;11.27;3.05;;;;;;;;;;6917243;28;20030;-79
2021/05/22 23:10:23;;;;;;;27.20;4.20;;;;;;;;;;6915752;28;20488;-77
2021/05/22 23:13:43;;;;;;;25.48;4.22;;;;;;;;;;6916546;28;20044;-78
2021/05/22 23:17:04;;;;;;;27.08;4.03;;;;;;;;;;6916203;28;20094;-78
2021/05/22 23:20:26;;;;;;;23.73;4.47;;;;;;;;;;6916577;28;20034;-78
2021/05/22 23:23:47;;;;;;;17.92;3.63;;;;;;;;;;6916627;28;20061;-77
2021/05/22 23:27:07;;;;;;;22.80;4.95;;;;;;;;;;6909709;28;20097;-77
2021/05/22 23:30:31;;;;;;;25.38;3.60;;;;;;;;;;6909657;28;20096;-78
2021/05/22 23:33:51;;;;;;;10.77;4.10;;;;;;;;;;6916020;28;20033;-77
2021/05/22 23:37:12;;;;;;;21.45;4.55;;;;;;;;;;6916090;28;20026;-77
2021/05/22 23:40:34;;;;;;;25.90;3.70;;;;;;;;;;6916096;28;20468;-78
2021/05/22 23:43:55;;;;;;;15.75;3.78;;;;;;;;;;6919007;28;20383;-77
2021/05/22 23:47:15;;;;;;;16.20;3.10;;;;;;;;;;6918786;28;20065;-78
2021/05/22 23:50:35;;;;;;;11.20;3.97;;;;;;;;;;6919250;28;20026;-78
2021/05/22 23:53:56;;;;;;;13.48;4.25;;;;;;;;;;6920393;28;20064;-78
2021/05/22 23:57:17;;;;;;;10.93;3.28;;;;;;;;;;6920367;28;20033;-77
